Oxnard Airport Oxnard US
ICAO: KOXR
IATA: OXR
Category: Medium
Scheduled Services: No

Elevation: 45 ft
TransAlt. 18000 ft.

Airport Communications:
PT MUGU APP/DEP:124.7
ATIS:118.05
CTAF:134.95
GND:121.9
TWR:134.95

KOXR Zoom In..

If you have problems with the map follow the link
https://www.worldairports.se/pages/airport.php?
ICAO=KOXR

Runways:

(A) RW 07 length 5953 ft width 100 ft
---- / hdg 76

(B) RW 25 length 5953 ft width 100 ft
ILS 108.70 / hdg 256

Location; KOXR
Day. 19 / Time. 17.51 Zulu
* Altimeter: 30.10
* Temperature: 21° c. 69.8°f.
* Wind from: 090° Speed 13 kn.
Dewpoint: -03° c.
Visibility: 10 Statute Miles.
Clouds: Clear (automated report).

KOXR 191751Z 09013KT 10SM CLR 21/M03 A3010 RMK AO2 SLP193 T02061028 10206 20144 50007


Wind From 090°
Speed 13 kn.

 
 
jpsmedia worldairports.se 2020   terms of use